createdAt,value
2023-04-29T00:01:33.788Z,10.48
2023-04-29T00:06:33.441Z,10.24
2023-04-29T00:11:33.100Z,9.96
2023-04-29T00:16:35.356Z,9.94
2023-04-29T00:21:34.850Z,9.85
2023-04-29T00:26:37.377Z,9.90
2023-04-29T00:31:37.767Z,9.79
2023-04-29T00:36:37.669Z,9.67
2023-04-29T00:41:35.121Z,9.94
2023-04-29T00:46:36.843Z,9.58
2023-04-29T00:51:44.413Z,9.24
2023-04-29T00:56:50.592Z,9.29
2023-04-29T01:01:54.229Z,9.25
2023-04-29T01:07:14.672Z,9.09
2023-04-29T01:12:42.311Z,9.09
2023-04-29T01:18:09.062Z,8.98
2023-04-29T01:23:14.234Z,8.87
2023-04-29T01:28:13.793Z,9.05
2023-04-29T01:34:03.978Z,9.05
2023-04-29T01:39:14.384Z,8.08
2023-04-29T01:44:21.506Z,8.05
2023-04-29T01:49:32.580Z,8.48
2023-04-29T01:54:42.839Z,8.50
2023-04-29T01:59:47.176Z,8.61
2023-04-29T02:05:16.361Z,8.46
2023-04-29T02:10:25.802Z,8.48
2023-04-29T02:15:33.132Z,8.13
2023-04-29T02:20:40.454Z,8.22
2023-04-29T02:25:47.298Z,8.00
2023-04-29T02:30:51.946Z,7.48
2023-04-29T02:35:53.955Z,7.83
2023-04-29T02:40:52.326Z,7.47
2023-04-29T02:45:57.402Z,8.16
2023-04-29T02:50:56.976Z,7.94
2023-04-29T02:55:55.942Z,8.20
2023-04-29T03:00:59.231Z,8.38
2023-04-29T03:05:58.277Z,8.47
2023-04-29T03:11:00.496Z,8.56
2023-04-29T03:16:02.856Z,8.55
2023-04-29T03:21:00.356Z,8.57
2023-04-29T03:25:59.345Z,8.75
2023-04-29T03:30:59.351Z,8.65
2023-04-29T03:35:58.162Z,8.92
2023-04-29T03:41:13.472Z,8.86
2023-04-29T03:46:12.360Z,8.70
2023-04-29T03:51:13.632Z,8.95
2023-04-29T03:56:17.492Z,9.01
2023-04-29T04:01:17.443Z,9.10
2023-04-29T04:06:17.940Z,9.48
2023-04-29T04:11:18.120Z,9.18
2023-04-29T04:16:20.673Z,9.20
2023-04-29T04:21:19.396Z,9.30
2023-04-29T04:26:26.183Z,8.92
2023-04-29T04:31:46.279Z,9.15
2023-04-29T04:36:48.168Z,9.20
2023-04-29T04:41:47.431Z,9.27
2023-04-29T04:46:51.139Z,9.55
2023-04-29T04:52:03.416Z,9.22
2023-04-29T04:57:06.344Z,9.07
2023-04-29T05:02:05.917Z,9.48
2023-04-29T05:07:03.832Z,9.99
2023-04-29T05:12:17.887Z,10.07
2023-04-29T05:17:18.543Z,10.34
2023-04-29T05:22:19.254Z,10.73
2023-04-29T05:27:24.412Z,11.05
2023-04-29T05:45:22.627Z,11.67
2023-04-29T05:50:37.712Z,12.21
2023-04-29T05:55:39.490Z,12.40
2023-04-29T06:01:12.203Z,12.24
2023-04-29T06:06:12.249Z,12.50
2023-04-29T06:11:17.896Z,12.33
2023-04-29T06:16:18.415Z,12.51
2023-04-29T06:21:30.000Z,12.59
2023-04-29T06:26:38.088Z,12.68
2023-04-29T06:31:55.302Z,12.67
2023-04-29T06:37:08.762Z,12.79
2023-04-29T06:42:41.325Z,12.79
2023-04-29T06:48:18.260Z,12.70
2023-04-29T06:53:19.934Z,13.10
2023-04-29T07:04:06.398Z,12.92
2023-04-29T07:09:05.071Z,13.15
2023-04-29T07:14:19.178Z,13.56
2023-04-29T07:19:23.492Z,13.05
2023-04-29T07:24:35.515Z,13.12
2023-04-29T07:29:37.701Z,13.24
2023-04-29T07:34:48.711Z,13.24
2023-04-29T07:40:00.101Z,13.24
2023-04-29T07:45:00.184Z,13.69
2023-04-29T07:49:58.907Z,13.65
2023-04-29T07:55:08.859Z,13.95
2023-04-29T08:00:13.603Z,14.08
2023-04-29T08:05:22.935Z,14.24
2023-04-29T08:10:33.299Z,14.03
2023-04-29T08:15:49.634Z,14.24
2023-04-29T08:21:13.195Z,14.35
2023-04-29T08:26:15.696Z,14.44
2023-04-29T08:31:30.852Z,14.50
2023-04-29T08:36:33.977Z,14.65
2023-04-29T08:41:42.089Z,14.37
2023-04-29T08:46:45.915Z,14.61
2023-04-29T08:51:58.434Z,15.29
2023-04-29T08:57:04.332Z,15.09
2023-04-29T09:02:07.498Z,15.79
2023-04-29T09:07:19.318Z,15.45
2023-04-29T09:12:26.486Z,15.67
2023-04-29T09:17:45.012Z,16.14
2023-04-29T09:23:01.271Z,16.06
2023-04-29T09:28:19.932Z,15.73
2023-04-29T09:33:37.066Z,16.13
2023-04-29T09:38:44.109Z,16.08
2023-04-29T09:44:10.015Z,15.91
2023-04-29T09:49:25.073Z,15.83
2023-04-29T09:54:29.324Z,15.73
2023-04-29T09:59:45.770Z,15.97
2023-04-29T10:04:55.544Z,15.90
2023-04-29T10:10:00.974Z,16.01
2023-04-29T10:15:06.265Z,16.47
2023-04-29T10:20:20.251Z,16.34
2023-04-29T10:25:26.874Z,16.39
2023-04-29T10:30:38.820Z,16.86
2023-04-29T10:35:51.048Z,17.02
2023-04-29T10:40:51.343Z,17.04
2023-04-29T10:46:19.949Z,16.97
2023-04-29T10:51:33.329Z,17.18
2023-04-29T10:56:55.977Z,17.01
2023-04-29T11:02:04.451Z,17.32
2023-04-29T11:07:10.763Z,18.25
2023-04-29T11:12:22.735Z,17.88
2023-04-29T11:17:52.572Z,18.41
2023-04-29T11:23:00.051Z,18.13
2023-04-29T11:28:11.047Z,17.64
2023-04-29T11:33:17.415Z,17.94
2023-04-29T11:38:24.774Z,18.07
2023-04-29T11:49:15.436Z,18.05
2023-04-29T11:54:19.075Z,19.10
2023-04-29T11:59:27.161Z,17.87
2023-04-29T12:04:35.683Z,18.21
2023-04-29T12:09:45.859Z,18.54
2023-04-29T12:14:59.669Z,18.36
2023-04-29T12:20:13.376Z,19.18
2023-04-29T12:25:20.323Z,18.82
2023-04-29T12:35:47.214Z,19.53
2023-04-29T12:40:56.378Z,19.42
2023-04-29T12:46:19.360Z,19.67
2023-04-29T12:51:45.229Z,20.24
2023-04-29T12:57:10.765Z,20.72
2023-04-29T13:08:03.196Z,23.04
2023-04-29T13:13:16.552Z,23.29
2023-04-29T13:18:58.994Z,24.68
2023-04-29T13:24:25.631Z,25.66
2023-04-29T13:29:33.624Z,26.10
2023-04-29T13:34:42.810Z,25.99
2023-04-29T13:39:56.413Z,26.18
2023-04-29T13:51:09.630Z,26.90
2023-04-29T13:56:55.075Z,25.98
2023-04-29T14:06:35.880Z,27.14
2023-04-29T14:12:08.640Z,27.59
2023-04-29T14:17:28.814Z,24.75
2023-04-29T14:22:34.276Z,25.58
2023-04-29T14:27:40.015Z,22.64
2023-04-29T14:32:51.460Z,22.93
2023-04-29T14:37:52.942Z,21.38
2023-04-29T14:43:12.080Z,21.63
2023-04-29T14:48:33.618Z,23.02
2023-04-29T14:53:41.481Z,21.85
2023-04-29T14:58:47.055Z,21.14
2023-04-29T15:03:55.137Z,20.98
2023-04-29T15:09:12.943Z,20.65
2023-04-29T15:14:17.095Z,19.91
2023-04-29T15:25:28.201Z,20.60
2023-04-29T15:30:48.095Z,19.42
2023-04-29T15:35:51.551Z,18.67
2023-04-29T15:41:19.910Z,19.21
2023-04-29T15:46:24.413Z,20.20
2023-04-29T15:51:27.713Z,19.41
2023-04-29T15:56:39.274Z,18.12
2023-04-29T16:01:45.151Z,18.04
2023-04-29T16:06:49.934Z,18.03
2023-04-29T16:11:50.712Z,17.70
2023-04-29T16:16:49.844Z,17.96
2023-04-29T16:21:57.449Z,18.15
2023-04-29T16:27:01.769Z,18.15
2023-04-29T16:32:08.866Z,18.69
2023-04-29T16:37:12.842Z,18.19
2023-04-29T16:42:26.108Z,17.98
2023-04-29T16:47:30.913Z,18.13
2023-04-29T16:52:34.754Z,17.93
2023-04-29T16:57:34.039Z,17.90
2023-04-29T17:02:36.719Z,18.21
2023-04-29T17:07:38.555Z,18.08
2023-04-29T17:12:51.024Z,17.69
2023-04-29T17:17:54.645Z,17.64
2023-04-29T17:22:53.295Z,17.72
2023-04-29T17:28:01.422Z,17.90
2023-04-29T17:33:14.352Z,17.49
2023-04-29T17:38:15.771Z,17.38
2023-04-29T17:43:32.820Z,17.20
2023-04-29T17:48:48.534Z,17.14
2023-04-29T17:53:58.877Z,16.85
2023-04-29T17:59:37.818Z,17.10
2023-04-29T18:04:38.941Z,16.73
2023-04-29T18:09:41.329Z,16.42
2023-04-29T18:14:51.081Z,16.51
2023-04-29T18:20:05.141Z,16.64
2023-04-29T18:25:09.311Z,16.30
2023-04-29T18:30:16.021Z,16.25
2023-04-29T18:35:25.376Z,16.26
2023-04-29T18:40:28.894Z,15.94
2023-04-29T18:45:32.151Z,15.77
2023-04-29T18:50:44.568Z,15.72
2023-04-29T18:56:04.965Z,15.74
2023-04-29T19:01:20.673Z,15.46
2023-04-29T19:06:27.225Z,15.40
2023-04-29T19:11:34.473Z,15.54
2023-04-29T19:16:38.882Z,15.21
2023-04-29T19:22:06.172Z,14.98
2023-04-29T19:27:14.078Z,15.01
2023-04-29T19:32:14.502Z,15.05
2023-04-29T19:37:47.100Z,14.83
2023-04-29T19:43:04.068Z,15.02
2023-04-29T19:48:28.337Z,15.15
2023-04-29T19:54:01.167Z,15.09
2023-04-29T19:59:01.791Z,15.01
2023-04-29T20:04:16.604Z,15.26
2023-04-29T20:09:26.854Z,14.92
2023-04-29T20:15:12.951Z,15.12
2023-04-29T20:20:21.759Z,14.98
2023-04-29T20:25:22.940Z,14.88
2023-04-29T20:30:24.151Z,14.76
2023-04-29T20:35:55.410Z,15.34
2023-04-29T20:41:16.805Z,15.09
2023-04-29T20:46:26.042Z,14.59
2023-04-29T20:51:28.990Z,14.38
2023-04-29T20:56:27.904Z,14.01
2023-04-29T21:01:42.605Z,14.21
2023-04-29T21:06:42.792Z,13.90
2023-04-29T21:11:45.372Z,13.71
2023-04-29T21:16:47.559Z,13.74
2023-04-29T21:21:55.672Z,13.39
2023-04-29T21:26:57.649Z,13.25
2023-04-29T21:31:58.814Z,13.07
2023-04-29T21:36:59.434Z,13.19
2023-04-29T21:41:57.130Z,13.27
2023-04-29T21:47:01.865Z,13.15
2023-04-29T21:52:03.297Z,13.12
2023-04-29T21:57:07.276Z,13.10
2023-04-29T22:02:23.320Z,13.01
2023-04-29T22:07:26.385Z,12.93
2023-04-29T22:12:27.670Z,12.53
2023-04-29T22:17:26.338Z,12.20
2023-04-29T22:22:26.715Z,12.26
2023-04-29T22:27:37.800Z,12.28
2023-04-29T22:38:10.072Z,12.38
2023-04-29T22:43:14.412Z,12.04
2023-04-29T22:48:14.457Z,12.14
2023-04-29T22:53:18.703Z,12.05
2023-04-29T22:58:25.851Z,11.92
2023-04-29T23:03:29.492Z,11.94
2023-04-29T23:08:38.844Z,12.31
2023-04-29T23:13:43.552Z,12.10
2023-04-29T23:18:45.162Z,11.89
2023-04-29T23:23:47.254Z,11.97
2023-04-29T23:28:50.003Z,12.00
2023-04-29T23:33:54.155Z,11.65
2023-04-29T23:38:52.847Z,11.62
2023-04-29T23:44:01.675Z,11.49
2023-04-29T23:49:06.058Z,11.59
2023-04-29T23:54:16.864Z,11.12
2023-04-29T23:59:16.042Z,11.39
